Time;durP1;ratioP1;P1;durP2;ratioP2;P2;SDS_P1;SDS_P2;PMS_P1;PMS_P2;Temp;Humidity;BMP_temperature;BMP_pressure;BME280_temperature;BME280_humidity;BME280_pressure;Samples;Min_cycle;Max_cycle;Signal;HPM_P1;HPM_P2
2021/08/11 00:00:55;;;;;;;4.97;3.90;;;;;;;23.57;59.46;99507.34;5035237;28;20639;-86
2021/08/11 00:03:22;;;;;;;6.28;3.83;;;;;;;23.52;60.54;99499.25;5051482;28;20635;-85
2021/08/11 00:05:49;;;;;;;3.90;3.50;;;;;;;23.35;62.18;99485.41;5051229;28;20245;-84
2021/08/11 00:08:16;;;;;;;4.33;3.80;;;;;;;23.25;61.67;99484.50;5050887;28;20230;-86
2021/08/11 00:10:43;;;;;;;4.35;3.95;;;;;;;23.23;62.17;99472.28;5034736;28;20307;-86
2021/08/11 00:13:10;;;;;;;8.55;4.20;;;;;;;23.19;61.46;99472.06;5035091;28;20225;-85
2021/08/11 00:15:36;;;;;;;4.28;3.78;;;;;;;23.08;61.57;99469.88;5051069;28;20254;-85
2021/08/11 00:18:03;;;;;;;4.70;4.30;;;;;;;23.08;61.57;99486.25;5017930;28;20552;-86
2021/08/11 00:20:30;;;;;;;4.40;4.00;;;;;;;23.00;61.79;99470.59;5018003;28;20316;-86
2021/08/11 00:22:57;;;;;;;4.07;3.50;;;;;;;22.92;61.86;99466.63;5034584;28;20521;-86
2021/08/11 00:25:24;;;;;;;5.07;3.73;;;;;;;22.91;61.58;99466.97;5035160;28;20257;-85
2021/08/11 00:27:51;;;;;;;4.43;4.00;;;;;;;22.90;61.48;99463.41;5034563;28;20231;-84
2021/08/11 00:30:17;;;;;;;4.77;4.00;;;;;;;22.82;61.66;99459.47;5017465;28;20234;-86
2021/08/11 00:32:44;;;;;;;4.40;4.00;;;;;;;22.75;61.52;99453.59;5034338;28;20225;-85
2021/08/11 00:35:12;;;;;;;4.47;4.00;;;;;;;22.71;61.62;99452.59;5017909;28;20227;-86
2021/08/11 00:37:39;;;;;;;3.80;3.50;;;;;;;22.82;61.62;99451.25;5034164;28;20298;-85
2021/08/11 00:40:08;;;;;;;3.93;3.63;;;;;;;22.71;61.43;99440.88;5033987;28;20234;-85
2021/08/11 00:42:35;;;;;;;4.40;4.00;;;;;;;22.71;61.37;99440.88;5018057;28;20235;-88
2021/08/11 00:45:03;;;;;;;4.87;3.80;;;;;;;22.65;61.92;99431.13;5017835;28;20535;-85
2021/08/11 00:47:35;;;;;;;6.23;3.43;;;;;;;22.53;61.55;99437.09;5034452;28;20241;-85
2021/08/11 00:50:05;;;;;;;4.30;3.90;;;;;;;22.53;61.14;99439.00;5017502;28;20316;-86
2021/08/11 00:52:32;;;;;;;3.60;3.30;;;;;;;22.52;61.45;99443.66;5034082;28;20225;-86
2021/08/11 00:55:02;;;;;;;4.50;3.27;;;;;;;22.28;61.35;99437.56;5033992;28;20236;-86
2021/08/11 00:57:31;;;;;;;3.90;3.57;;;;;;;22.38;61.15;99457.28;5050635;28;20237;-85
2021/08/11 01:00:00;;;;;;;4.53;3.63;;;;;;;22.35;61.74;99452.41;5017937;28;20318;-85
2021/08/11 01:02:28;;;;;;;3.87;3.53;;;;;;;22.33;62.21;99459.28;5033779;28;20235;-85
2021/08/11 01:04:58;;;;;;;4.27;3.87;;;;;;;22.27;62.49;99460.50;5034007;28;20234;-86
2021/08/11 01:07:27;;;;;;;3.70;3.40;;;;;;;22.17;62.96;99458.75;5017799;28;20279;-86
2021/08/11 01:09:54;;;;;;;4.23;3.83;;;;;;;22.10;63.13;99457.53;5017843;28;20232;-85
2021/08/11 01:12:26;;;;;;;4.23;3.83;;;;;;;22.04;62.50;99454.06;5017122;28;20311;-86
2021/08/11 01:14:54;;;;;;;3.87;3.43;;;;;;;22.04;62.49;99453.25;5033943;28;20259;-85
2021/08/11 01:17:23;;;;;;;3.73;3.17;;;;;;;22.06;62.29;99461.97;5017710;28;20227;-86
2021/08/11 01:19:51;;;;;;;4.13;3.63;;;;;;;21.91;62.43;99461.09;5033929;28;20233;-86
2021/08/11 01:22:27;;;;;;;4.13;3.73;;;;;;;22.03;62.69;99478.91;5017177;28;20244;-86
2021/08/11 01:25:09;;;;;;;4.00;3.70;;;;;;;22.02;63.07;99482.78;5017893;28;20293;-85
2021/08/11 01:27:55;;;;;;;3.97;3.67;;;;;;;21.93;62.76;99482.63;5034102;28;20228;-87
2021/08/11 01:30:30;;;;;;;3.87;3.47;;;;;;;21.86;63.42;99501.25;5017786;28;20524;-85
2021/08/11 01:33:31;;;;;;;4.00;3.70;;;;;;;21.83;63.97;99505.41;5001535;28;20228;-86
2021/08/11 01:36:11;;;;;;;4.77;3.90;;;;;;;21.76;64.36;99506.88;5034545;28;20285;-85
2021/08/11 01:38:40;;;;;;;4.50;3.63;;;;;;;21.61;64.51;99505.16;5037530;28;20254;-86
2021/08/11 01:41:10;;;;;;;4.77;3.63;;;;;;;21.68;64.91;99529.34;5037516;28;20246;-86
2021/08/11 01:43:39;;;;;;;4.17;3.77;;;;;;;21.66;65.40;99529.63;5037444;28;20287;-86
2021/08/11 01:46:07;;;;;;;5.33;4.27;;;;;;;21.53;65.26;99522.19;5020605;28;20227;-86
2021/08/11 01:48:38;;;;;;;4.20;3.80;;;;;;;21.51;65.58;99522.47;5037130;28;20232;-86
2021/08/11 01:51:06;;;;;;;4.90;3.90;;;;;;;21.54;65.63;99521.09;5037128;28;20580;-85
2021/08/11 01:53:33;;;;;;;4.50;4.00;;;;;;;21.45;65.83;99512.78;5053025;28;20243;-87
2021/08/11 01:56:05;;;;;;;4.20;3.80;;;;;;;21.39;66.44;99516.66;5035415;28;20329;-86
2021/08/11 01:58:40;;;;;;;5.10;3.83;;;;;;;21.38;66.80;99525.94;5020285;28;20574;-87
2021/08/11 02:01:10;;;;;;;4.77;4.13;;;;;;;21.25;66.98;99513.03;5021430;28;20650;-86
2021/08/11 02:03:37;;;;;;;4.30;4.00;;;;;;;21.18;67.25;99526.22;5020731;28;20251;-87
2021/08/11 02:06:05;;;;;;;4.23;3.80;;;;;;;21.24;66.89;99529.66;5053083;28;20614;-87
2021/08/11 02:08:33;;;;;;;4.87;3.90;;;;;;;21.18;66.44;99526.22;5036867;28;20232;-86
2021/08/11 02:11:01;;;;;;;4.47;4.07;;;;;;;21.21;66.61;99541.16;5020287;28;20232;-86
2021/08/11 02:13:31;;;;;;;4.53;4.13;;;;;;;21.13;66.48;99537.16;5021181;28;20661;-87
2021/08/11 02:15:58;;;;;;;3.83;3.50;;;;;;;21.16;66.19;99546.66;5037199;28;20225;-86
2021/08/11 02:18:25;;;;;;;5.60;4.10;;;;;;;21.12;66.44;99546.41;5036261;28;20301;-85
2021/08/11 02:20:57;;;;;;;5.00;4.30;;;;;;;21.07;66.43;99543.75;5036786;28;20228;-86
2021/08/11 02:23:24;;;;;;;5.10;4.20;;;;;;;21.16;65.77;99554.84;5035644;28;20282;-86
2021/08/11 02:26:03;;;;;;;4.47;4.07;;;;;;;21.17;65.54;99553.75;5036658;28;20228;-87
2021/08/11 02:28:44;;;;;;;4.47;4.03;;;;;;;21.15;65.42;99551.28;5036280;28;20553;-86
2021/08/11 02:31:20;;;;;;;4.83;4.00;;;;;;;21.17;66.08;99551.81;5020016;28;20228;-86
2021/08/11 02:34:04;;;;;;;4.57;4.17;;;;;;;21.13;66.38;99549.94;5036483;28;20544;-86
2021/08/11 02:36:40;;;;;;;4.93;4.20;;;;;;;21.07;66.52;99538.28;5036399;28;20232;-86
2021/08/11 02:39:10;;;;;;;4.63;4.23;;;;;;;21.07;66.38;99549.19;5020106;28;20224;-86
2021/08/11 02:41:42;;;;;;;4.90;3.90;;;;;;;20.99;66.63;99536.22;5019991;28;20239;-86
2021/08/11 02:44:26;;;;;;;4.73;4.33;;;;;;;21.01;66.61;99534.81;5019784;28;20314;-86
2021/08/11 02:46:53;;;;;;;4.13;3.83;;;;;;;20.97;66.69;99543.84;5036025;28;20231;-86
2021/08/11 02:49:25;;;;;;;7.13;4.57;;;;;;;20.89;66.84;99539.03;5035830;28;20226;-86
2021/08/11 02:51:56;;;;;;;5.13;4.20;;;;;;;20.79;67.22;99526.34;5036552;28;20219;-87
2021/08/11 02:54:24;;;;;;;4.60;4.20;;;;;;;20.78;67.43;99524.72;5019608;28;20230;-86
2021/08/11 02:56:52;;;;;;;5.43;4.00;;;;;;;20.75;67.83;99536.19;5019737;28;20254;-86
2021/08/11 02:59:21;;;;;;;4.90;4.30;;;;;;;20.73;68.23;99538.38;5035972;28;20234;-87
2021/08/11 03:01:49;;;;;;;5.00;4.17;;;;;;;20.65;68.24;99531.66;5019684;28;20233;-87
2021/08/11 03:04:16;;;;;;;4.70;4.30;;;;;;;20.64;68.69;99540.94;5019122;28;20535;-86
2021/08/11 03:06:45;;;;;;;4.53;4.07;;;;;;;20.55;68.73;99525.50;5019680;28;20242;-86
2021/08/11 03:09:12;;;;;;;5.57;4.50;;;;;;;20.56;68.45;99541.56;5019414;28;20234;-86
2021/08/11 03:11:40;;;;;;;4.20;3.90;;;;;;;20.50;68.88;99548.13;5019465;28;20234;-87
2021/08/11 03:14:08;;;;;;;4.80;4.30;;;;;;;20.49;69.00;99548.41;5018788;28;20240;-87
2021/08/11 03:16:39;;;;;;;5.13;4.43;;;;;;;20.44;69.04;99556.63;5052311;28;20222;-87
2021/08/11 03:19:07;;;;;;;5.63;4.03;;;;;;;20.37;69.40;99558.88;5019583;28;20260;-87
2021/08/11 03:21:38;;;;;;;4.13;3.83;;;;;;;20.28;69.21;99552.41;5035751;28;20226;-86
2021/08/11 03:24:09;;;;;;;4.97;4.30;;;;;;;20.23;69.73;99555.97;5019285;28;20535;-87
2021/08/11 03:26:35;;;;;;;5.20;4.30;;;;;;;20.18;69.64;99558.72;5019325;28;20540;-87
2021/08/11 03:29:03;;;;;;;4.90;4.50;;;;;;;20.11;69.80;99550.09;5035529;28;20230;-86
2021/08/11 03:31:35;;;;;;;5.00;4.50;;;;;;;20.21;69.84;99571.75;5019850;28;20317;-87
2021/08/11 03:34:03;;;;;;;5.97;4.20;;;;;;;20.19;69.95;99571.25;5035033;28;20630;-86
2021/08/11 03:36:33;;;;;;;5.43;4.33;;;;;;;20.14;70.07;99569.38;5019082;28;20724;-87
2021/08/11 03:39:00;;;;;;;5.13;4.50;;;;;;;20.14;70.08;99588.41;5035329;28;20232;-87
2021/08/11 03:41:31;;;;;;;5.47;4.43;;;;;;;20.06;70.14;99575.41;5019278;28;20713;-86
2021/08/11 03:43:58;;;;;;;5.27;4.73;;;;;;;20.05;70.13;99572.97;5019021;28;20515;-87
2021/08/11 03:46:30;;;;;;;5.07;4.57;;;;;;;19.98;70.51;99578.72;5035151;28;20305;-87
2021/08/11 03:48:57;;;;;;;5.30;4.27;;;;;;;19.94;70.77;99582.28;5035065;28;20226;-86
2021/08/11 03:51:25;;;;;;;5.70;4.47;;;;;;;19.99;70.79;99590.41;5035063;28;20242;-88
2021/08/11 03:53:52;;;;;;;6.03;4.70;;;;;;;19.96;71.07;99593.72;5035146;28;20231;-86
2021/08/11 03:56:19;;;;;;;5.70;4.33;;;;;;;19.91;70.90;99585.56;5018330;28;20234;-86
2021/08/11 03:58:46;;;;;;;4.57;4.17;;;;;;;19.94;70.99;99582.28;5034889;28;20218;-87
2021/08/11 04:01:13;;;;;;;4.77;4.30;;;;;;;19.89;70.72;99572.25;5034216;28;20672;-85
2021/08/11 04:03:44;;;;;;;5.03;4.27;;;;;;;19.88;70.79;99577.97;5019163;28;20312;-87
2021/08/11 04:06:11;;;;;;;5.23;4.20;;;;;;;19.95;70.55;99582.00;5034707;28;20241;-87
2021/08/11 04:08:37;;;;;;;4.87;4.47;;;;;;;19.93;70.75;99572.50;5051542;28;20237;-87
2021/08/11 04:11:04;;;;;;;4.43;4.03;;;;;;;19.97;70.44;99582.53;5035012;28;20238;-87
2021/08/11 04:13:31;;;;;;;5.03;4.53;;;;;;;19.91;71.07;99577.41;5034628;28;20225;-87
2021/08/11 04:15:57;;;;;;;4.80;4.30;;;;;;;20.01;70.67;99588.25;5051042;28;20226;-87
2021/08/11 04:18:24;;;;;;;6.13;4.20;;;;;;;20.02;70.55;99592.56;5034321;28;20617;-86
2021/08/11 04:20:51;;;;;;;4.20;3.80;;;;;;;19.97;70.77;99590.69;5034920;28;20536;-87
2021/08/11 04:23:18;;;;;;;4.40;4.00;;;;;;;20.06;70.82;99599.88;5034771;28;20238;-87
2021/08/11 04:25:44;;;;;;;4.83;4.30;;;;;;;20.11;70.21;99599.06;5034425;28;20226;-88
2021/08/11 04:28:11;;;;;;;4.83;4.33;;;;;;;20.17;70.21;99604.16;5034362;28;20234;-87
2021/08/11 04:30:40;;;;;;;5.20;4.50;;;;;;;20.27;69.44;99603.28;5051383;28;20237;-87
2021/08/11 04:33:07;;;;;;;4.70;4.20;;;;;;;20.40;69.72;99613.53;5034698;28;20541;-88
2021/08/11 04:35:39;;;;;;;5.13;4.63;;;;;;;20.49;69.44;99603.66;5018008;28;20229;-86
2021/08/11 04:38:06;;;;;;;5.07;4.20;;;;;;;20.70;68.82;99603.50;5034542;28;20225;-87
2021/08/11 04:40:35;;;;;;;4.53;3.70;;;;;;;20.87;68.16;99601.97;5035157;28;20227;-86
2021/08/11 04:43:02;;;;;;;4.53;4.10;;;;;;;21.12;67.65;99614.50;5034528;28;20230;-86
2021/08/11 04:45:29;;;;;;;6.53;4.10;;;;;;;21.25;66.56;99602.13;5034379;28;20252;-87
2021/08/11 04:47:55;;;;;;;4.30;3.90;;;;;;;21.38;65.38;99607.69;5050923;28;20262;-87
2021/08/11 04:50:22;;;;;;;5.47;4.07;;;;;;;21.63;65.51;99616.66;5050608;28;20644;-84
2021/08/11 04:52:49;;;;;;;5.33;4.40;;;;;;;21.78;64.96;99614.56;5051021;28;20313;-86
2021/08/11 04:55:20;;;;;;;4.83;4.33;;;;;;;21.99;64.64;99609.63;5034539;28;20239;-86
2021/08/11 04:57:47;;;;;;;4.90;4.40;;;;;;;22.17;62.73;99608.81;5034259;28;20231;-84
2021/08/11 05:00:14;;;;;;;4.53;4.13;;;;;;;22.47;61.12;99614.91;5034129;28;20235;-86
2021/08/11 05:02:41;;;;;;;4.47;4.07;;;;;;;22.78;59.86;99607.84;5035505;28;20237;-87
2021/08/11 05:05:08;;;;;;;4.40;3.80;;;;;;;22.91;59.66;99603.53;5033999;28;20231;-86
2021/08/11 05:07:35;;;;;;;4.73;4.10;;;;;;;23.20;58.74;99609.53;5050522;28;20236;-85
2021/08/11 05:10:02;;;;;;;5.13;3.93;;;;;;;23.33;57.61;99605.19;5033701;28;20232;-85
2021/08/11 05:12:30;;;;;;;4.00;3.60;;;;;;;23.57;57.09;99598.41;5037714;28;20229;-85
2021/08/11 05:14:58;;;;;;;3.90;3.50;;;;;;;23.73;56.79;99590.69;5054933;28;20233;-86
2021/08/11 05:17:25;;;;;;;5.50;3.53;;;;;;;23.78;56.11;99587.03;5054648;28;20229;-86
2021/08/11 05:19:52;;;;;;;5.00;3.60;;;;;;;24.12;55.60;99588.13;5038458;28;20229;-86
2021/08/11 05:22:21;;;;;;;3.57;3.27;;;;;;;24.23;54.94;99591.47;5037474;28;20242;-85
2021/08/11 05:24:48;;;;;;;4.67;3.63;;;;;;;24.36;54.52;99585.13;5038343;28;20225;-86
2021/08/11 05:27:18;;;;;;;3.60;3.30;;;;;;;24.66;54.07;99605.47;5037974;28;20243;-86
2021/08/11 05:29:45;;;;;;;4.07;3.30;;;;;;;24.74;53.70;99592.94;5038042;28;20232;-86
2021/08/11 05:32:14;;;;;;;4.27;3.33;;;;;;;24.90;53.20;99600.50;5053649;28;20236;-86
2021/08/11 05:34:41;;;;;;;3.50;3.30;;;;;;;25.08;53.26;99614.28;5038367;28;20533;-85
2021/08/11 05:37:08;;;;;;;4.82;3.67;;;;;;;25.19;52.57;99610.16;5053856;28;20236;-86
2021/08/11 05:39:35;;;;;;;4.47;3.40;;;;;;;25.32;52.21;99612.78;5037744;28;20230;-85
2021/08/11 05:42:03;;;;;;;4.40;3.30;;;;;;;25.51;51.42;99617.19;5020426;28;20245;-85
2021/08/11 05:44:31;;;;;;;3.75;3.40;;;;;;;25.72;50.93;99610.81;5037651;28;20230;-85
2021/08/11 05:47:01;;;;;;;3.47;3.17;;;;;;;25.91;50.67;99602.28;5037067;28;20240;-85
2021/08/11 05:49:28;;;;;;;5.55;3.40;;;;;;;26.01;50.54;99609.41;5020744;28;20233;-83
2021/08/11 05:51:55;;;;;;;3.58;3.25;;;;;;;26.13;49.94;99610.38;5035845;28;20230;-85
2021/08/11 05:54:22;;;;;;;4.00;3.60;;;;;;;26.27;49.66;99618.47;5051840;28;20226;-85
2021/08/11 05:56:49;;;;;;;6.55;3.72;;;;;;;26.26;49.31;99625.13;5035846;28;20836;-84
2021/08/11 05:59:16;;;;;;;4.53;3.60;;;;;;;26.35;49.22;99623.16;5036856;28;20252;-85
2021/08/11 06:01:42;;;;;;;3.72;3.40;;;;;;;26.46;48.96;99610.72;5053429;28;20524;-85
2021/08/11 06:04:09;;;;;;;4.10;3.42;;;;;;;26.63;48.85;99629.13;5052873;28;20317;-84
2021/08/11 06:06:36;;;;;;;4.15;3.70;;;;;;;26.62;48.72;99622.81;5035556;28;20240;-85
2021/08/11 06:09:03;;;;;;;4.40;3.30;;;;;;;26.83;48.82;99631.16;5036493;28;20276;-84
2021/08/11 06:11:29;;;;;;;4.00;3.70;;;;;;;26.90;48.54;99630.72;5020102;28;20585;-85
2021/08/11 06:13:56;;;;;;;4.03;3.55;;;;;;;26.94;48.26;99618.72;5036249;28;20241;-85
2021/08/11 06:16:23;;;;;;;4.22;3.67;;;;;;;27.07;48.35;99620.47;5036058;28;20226;-85
2021/08/11 06:18:50;;;;;;;4.78;3.53;;;;;;;27.17;47.62;99628.34;5037540;28;20235;-84
2021/08/11 06:21:17;;;;;;;4.50;3.90;;;;;;;27.34;47.41;99627.47;5019782;28;20645;-84
2021/08/11 06:23:44;;;;;;;5.03;3.50;;;;;;;27.36;47.97;99613.41;5002516;28;20233;-85
2021/08/11 06:26:10;;;;;;;4.93;3.58;;;;;;;27.58;47.72;99615.88;5052019;28;20323;-85
2021/08/11 06:28:37;;;;;;;4.70;3.70;;;;;;;27.65;46.92;99621.69;5035208;28;20613;-83
2021/08/11 06:31:04;;;;;;;4.07;3.67;;;;;;;27.80;47.13;99623.88;5035429;28;20233;-84
2021/08/11 06:33:31;;;;;;;7.63;4.50;;;;;;;27.90;47.00;99614.41;5003007;28;20226;-85
2021/08/11 06:35:58;;;;;;;5.85;4.05;;;;;;;28.18;46.48;99614.72;5035130;28;20631;-84
2021/08/11 06:38:25;;;;;;;4.10;3.60;;;;;;;28.40;46.79;99626.19;5063221;28;20236;-84
2021/08/11 06:40:52;;;;;;;4.55;3.72;;;;;;;28.58;46.16;99624.09;5055391;28;20278;-85
2021/08/11 06:43:19;;;;;;;4.10;3.70;;;;;;;28.56;45.17;99617.28;5039410;28;20324;-85
2021/08/11 06:45:46;;;;;;;5.07;4.10;;;;;;;28.52;44.58;99614.41;5022922;28;20247;-85
2021/08/11 06:48:16;;;;;;;3.83;3.53;;;;;;;28.79;44.11;99610.25;5038958;28;20229;-86
2021/08/11 06:50:44;;;;;;;4.82;3.85;;;;;;;28.87;43.88;99615.72;5039673;28;20229;-86
2021/08/11 06:53:11;;;;;;;5.88;3.95;;;;;;;28.47;44.79;99622.88;5022919;28;20263;-85
2021/08/11 06:55:38;;;;;;;5.05;3.78;;;;;;;28.12;45.11;99607.78;5039527;28;20228;-87
2021/08/11 06:58:04;;;;;;;4.32;3.92;;;;;;;28.09;44.76;99633.25;5039551;28;20252;-87
2021/08/11 07:00:31;;;;;;;4.20;3.90;;;;;;;28.08;45.14;99628.88;5039637;28;20229;-87
2021/08/11 07:02:59;;;;;;;4.15;3.80;;;;;;;28.12;45.47;99640.84;5056123;28;20531;-85
2021/08/11 07:05:26;;;;;;;5.28;3.85;;;;;;;28.04;45.62;99635.03;5039744;28;20236;-86
2021/08/11 07:07:53;;;;;;;4.50;4.10;;;;;;;27.93;45.83;99627.50;5055791;28;20640;-86
2021/08/11 07:10:20;;;;;;;5.07;4.03;;;;;;;27.84;45.80;99624.00;5038618;28;20226;-85
2021/08/11 07:12:48;;;;;;;4.97;4.20;;;;;;;27.74;46.61;99627.94;5038679;28;20715;-85
2021/08/11 07:15:15;;;;;;;4.55;4.15;;;;;;;27.68;47.09;99633.97;5054941;28;20301;-86
2021/08/11 07:17:53;;;;;;;4.90;3.85;;;;;;;27.78;46.82;99631.66;5038051;28;20228;-85
2021/08/11 07:20:21;;;;;;;4.43;4.03;;;;;;;27.82;46.68;99651.03;5054957;28;20232;-85
2021/08/11 07:22:48;;;;;;;5.63;4.03;;;;;;;27.76;47.34;99638.63;5054825;28;20531;-86
2021/08/11 07:25:16;;;;;;;5.53;4.07;;;;;;;27.85;47.05;99642.13;5038241;28;20643;-86
2021/08/11 07:27:43;;;;;;;4.85;4.35;;;;;;;28.10;46.26;99637.56;5037812;28;20245;-85
2021/08/11 07:30:11;;;;;;;5.00;4.50;;;;;;;28.11;45.97;99636.47;5054066;28;20286;-84
2021/08/11 07:32:38;;;;;;;4.30;3.92;;;;;;;28.19;45.62;99639.16;5054270;28;20251;-84
2021/08/11 07:35:05;;;;;;;5.68;4.10;;;;;;;28.36;44.39;99644.56;5037874;28;20253;-86
2021/08/11 07:37:32;;;;;;;5.28;4.15;;;;;;;28.37;44.75;99648.88;5053132;28;20621;-87
2021/08/11 07:39:59;;;;;;;5.88;4.20;;;;;;;28.30;44.63;99661.59;5019070;28;20262;-86
2021/08/11 07:42:26;;;;;;;4.82;4.30;;;;;;;28.31;44.82;99652.22;5035599;28;20263;-86
2021/08/11 07:44:52;;;;;;;4.45;4.05;;;;;;;28.39;45.02;99651.31;5054312;28;20287;-87
2021/08/11 07:47:19;;;;;;;4.38;3.80;;;;;;;28.43;45.32;99652.25;5037607;28;20244;-87
2021/08/11 07:49:46;;;;;;;5.75;4.22;;;;;;;28.54;45.63;99658.16;5037728;28;20323;-87
2021/08/11 07:52:13;;;;;;;7.65;4.40;;;;;;;28.76;44.66;99653.13;5054006;28;20641;-87
2021/08/11 07:54:40;;;;;;;5.13;4.60;;;;;;;29.01;43.74;99642.16;5054625;28;20225;-86
2021/08/11 07:57:07;;;;;;;5.53;4.53;;;;;;;29.17;42.87;99646.66;5055218;28;20282;-86
2021/08/11 07:59:33;;;;;;;5.07;4.10;;;;;;;29.24;43.21;99646.91;5053878;28;20261;-86
2021/08/11 08:02:00;;;;;;;4.75;4.30;;;;;;;29.44;42.62;99658.25;5055388;28;20318;-87
2021/08/11 08:04:27;;;;;;;4.43;4.00;;;;;;;29.36;41.51;99650.84;5037131;28;20221;-88
2021/08/11 08:06:54;;;;;;;4.85;4.35;;;;;;;29.40;41.02;99641.53;5054227;28;20517;-87
2021/08/11 08:09:21;;;;;;;5.25;4.15;;;;;;;29.86;40.51;99659.63;5036565;28;20312;-87
2021/08/11 08:11:48;;;;;;;4.28;3.88;;;;;;;29.83;39.93;99649.25;5037845;28;20592;-86
2021/08/11 08:14:15;;;;;;;5.15;4.15;;;;;;;30.06;39.40;99650.38;5037484;28;20233;-86
2021/08/11 08:16:42;;;;;;;4.35;3.95;;;;;;;29.99;39.60;99652.94;5054365;28;20225;-87
2021/08/11 08:19:09;;;;;;;4.20;3.80;;;;;;;30.12;39.98;99651.75;5037707;28;20291;-86
2021/08/11 08:21:36;;;;;;;4.88;4.05;;;;;;;30.10;39.41;99650.50;5021654;28;20229;-86
2021/08/11 08:24:04;;;;;;;4.25;3.85;;;;;;;30.13;39.56;99652.56;5037621;28;20308;-86
2021/08/11 08:26:30;;;;;;;4.53;4.13;;;;;;;30.03;38.84;99648.34;5021347;28;20283;-87
2021/08/11 08:28:57;;;;;;;5.30;4.22;;;;;;;30.10;38.98;99640.25;5020770;28;20295;-87
2021/08/11 08:31:24;;;;;;;5.13;4.20;;;;;;;30.11;39.96;99652.09;5021479;28;20641;-86
2021/08/11 08:33:51;;;;;;;4.93;4.38;;;;;;;30.24;39.91;99650.91;5054099;28;20253;-87
2021/08/11 08:36:18;;;;;;;4.70;4.40;;;;;;;30.14;39.27;99643.13;5037396;28;20234;-87
2021/08/11 08:38:45;;;;;;;5.50;4.40;;;;;;;30.05;39.31;99640.47;5054226;28;20210;-86
2021/08/11 08:41:12;;;;;;;5.18;4.68;;;;;;;30.32;39.12;99644.47;5053723;28;20250;-86
2021/08/11 08:43:39;;;;;;;4.72;4.10;;;;;;;30.42;38.68;99635.66;5053759;28;20221;-87
2021/08/11 08:46:07;;;;;;;9.98;4.80;;;;;;;30.19;40.44;99646.44;5035466;28;20319;-87
2021/08/11 08:48:38;;;;;;;6.45;4.43;;;;;;;30.19;39.40;99629.84;5045055;28;20248;-86
2021/08/11 08:51:05;;;;;;;5.95;4.43;;;;;;;30.02;39.84;99646.72;5053558;28;20621;-87
2021/08/11 08:53:33;;;;;;;5.00;4.50;;;;;;;29.93;40.20;99645.22;5034423;28;20252;-86
2021/08/11 08:56:00;;;;;;;6.72;4.38;;;;;;;30.24;39.83;99661.16;5020506;28;20225;-86
2021/08/11 08:58:27;;;;;;;6.18;4.45;;;;;;;30.45;38.65;99656.28;5064290;28;20229;-86
2021/08/11 09:00:53;;;;;;;4.90;4.13;;;;;;;30.42;38.18;99654.22;5053895;28;20291;-87
2021/08/11 09:03:20;;;;;;;4.95;4.22;;;;;;;30.72;38.12;99654.69;5037225;28;20233;-85
2021/08/11 09:05:48;;;;;;;6.07;4.57;;;;;;;30.80;38.67;99648.19;5054011;28;20229;-87
2021/08/11 09:08:14;;;;;;;6.32;4.13;;;;;;;30.74;38.96;99657.91;5053356;28;20229;-87
2021/08/11 09:10:41;;;;;;;4.82;3.97;;;;;;;30.74;37.93;99653.19;5053244;28;20528;-87
2021/08/11 09:13:19;;;;;;;4.70;4.05;;;;;;;30.71;37.41;99651.13;5053794;28;20229;-86
2021/08/11 09:15:48;;;;;;;5.25;4.10;;;;;;;31.16;37.19;99652.75;5021228;28;20229;-87
2021/08/11 09:18:19;;;;;;;4.05;3.72;;;;;;;30.83;38.16;99664.09;5035694;28;20252;-84
2021/08/11 09:20:51;;;;;;;5.30;4.18;;;;;;;31.11;37.03;99658.56;5054101;28;20579;-86
2021/08/11 09:23:39;;;;;;;4.82;4.40;;;;;;;30.77;37.68;99644.19;5053295;28;20306;-87
2021/08/11 09:26:09;;;;;;;5.57;4.25;;;;;;;30.70;38.23;99654.25;5036040;28;20634;-86
2021/08/11 09:28:38;;;;;;;4.47;4.07;;;;;;;30.80;38.94;99656.50;5052657;28;20291;-86
2021/08/11 09:31:25;;;;;;;5.05;4.47;;;;;;;30.67;38.11;99646.66;5036955;28;20689;-88
2021/08/11 09:33:57;;;;;;;4.93;4.40;;;;;;;30.82;37.86;99654.19;5035914;28;20233;-87
2021/08/11 09:36:25;;;;;;;4.78;4.28;;;;;;;30.88;38.17;99642.53;5035914;28;20233;-87
2021/08/11 09:39:04;;;;;;;6.95;4.25;;;;;;;31.07;39.18;99652.94;5052432;28;20244;-86
2021/08/11 09:41:34;;;;;;;5.78;4.28;;;;;;;30.80;38.34;99649.00;5053278;28;20237;-86
2021/08/11 09:44:09;;;;;;;4.00;3.55;;;;;;;31.23;37.34;99653.72;5053063;28;20284;-86
2021/08/11 09:46:38;;;;;;;4.47;3.92;;;;;;;31.30;37.47;99655.88;5053513;28;20366;-86
2021/08/11 09:49:17;;;;;;;2.90;2.70;;;;;;;31.07;33.24;99639.09;5069107;28;20233;-86
2021/08/11 09:51:59;;;;;;;3.40;3.10;;;;;;;31.36;34.51;99654.44;5052001;28;20245;-87
2021/08/11 09:54:27;;;;;;;3.38;3.15;;;;;;;31.32;33.33;99646.06;5036270;28;20225;-86
2021/08/11 09:56:54;;;;;;;3.65;2.90;;;;;;;31.30;34.01;99647.59;5036547;28;20226;-88
2021/08/11 09:59:22;;;;;;;3.28;2.92;;;;;;;31.18;35.19;99647.66;5057768;28;20253;-86
2021/08/11 10:01:49;;;;;;;4.10;3.33;;;;;;;31.32;35.12;99656.31;5040519;28;20229;-87
2021/08/11 10:04:18;;;;;;;5.32;3.20;;;;;;;31.55;34.01;99646.22;5056659;28;20234;-86
2021/08/11 10:06:46;;;;;;;3.55;3.00;;;;;;;31.38;34.48;99649.38;5056961;28;20230;-86
2021/08/11 10:09:25;;;;;;;4.20;3.10;;;;;;;31.43;34.06;99646.34;5040163;28;20565;-87
2021/08/11 10:11:56;;;;;;;3.70;3.35;;;;;;;31.33;33.21;99652.41;5040404;28;20252;-86
2021/08/11 10:14:28;;;;;;;4.13;3.15;;;;;;;30.99;33.95;99638.06;5039711;28;20253;-87
2021/08/11 10:16:57;;;;;;;3.60;3.30;;;;;;;31.15;34.96;99643.66;5056893;28;20282;-86
2021/08/11 10:19:27;;;;;;;3.45;3.22;;;;;;;31.34;34.25;99640.19;5073186;28;20283;-86
2021/08/11 10:21:59;;;;;;;4.05;3.35;;;;;;;31.42;34.00;99641.94;5056509;28;20249;-86
2021/08/11 10:24:28;;;;;;;3.95;3.30;;;;;;;31.52;34.01;99646.94;5056631;28;20629;-86
2021/08/11 10:26:55;;;;;;;4.43;3.40;;;;;;;31.46;34.77;99638.09;5056431;28;20221;-86
2021/08/11 10:29:24;;;;;;;4.93;3.50;;;;;;;31.58;35.15;99639.22;5056349;28;20245;-86
2021/08/11 10:31:51;;;;;;;5.50;3.33;;;;;;;31.31;34.55;99622.31;5072832;28;20684;-85
2021/08/11 10:34:18;;;;;;;3.55;3.25;;;;;;;31.75;35.46;99631.31;5038335;28;20609;-86
2021/08/11 10:36:47;;;;;;;3.53;3.08;;;;;;;31.97;33.91;99637.31;5070925;28;20309;-87
2021/08/11 10:39:14;;;;;;;5.40;3.22;;;;;;;31.75;33.86;99628.53;5054254;28;20608;-86
2021/08/11 10:41:41;;;;;;;3.58;3.28;;;;;;;31.70;33.38;99637.13;5053960;28;20248;-87
2021/08/11 10:44:22;;;;;;;4.40;3.13;;;;;;;31.88;33.90;99626.44;5037157;28;20287;-87
2021/08/11 10:46:55;;;;;;;4.43;2.85;;;;;;;31.55;33.55;99626.84;5037755;28;20623;-86
2021/08/11 10:49:24;;;;;;;3.88;3.00;;;;;;;31.59;33.87;99618.66;5054415;28;20256;-86
2021/08/11 10:51:51;;;;;;;5.07;3.15;;;;;;;31.71;33.05;99618.53;5040150;28;20640;-86
2021/08/11 10:54:18;;;;;;;3.58;3.28;;;;;;;31.71;33.77;99624.09;5038985;28;20229;-87
2021/08/11 10:56:46;;;;;;;3.13;2.80;;;;;;;31.95;33.00;99620.28;5055998;28;20683;-87
2021/08/11 10:59:22;;;;;;;3.47;3.17;;;;;;;31.83;32.73;99619.22;5055947;28;20253;-86
2021/08/11 11:01:48;;;;;;;3.30;3.00;;;;;;;31.98;33.44;99619.53;5057002;28;20763;-88
2021/08/11 11:04:42;;;;;;;3.20;2.90;;;;;;;31.99;32.85;99613.66;5038918;28;20287;-86
2021/08/11 11:07:09;;;;;;;3.08;2.88;;;;;;;32.10;32.35;99613.91;5055751;28;20279;-87
2021/08/11 11:09:36;;;;;;;3.00;2.80;;;;;;;31.87;32.04;99614.56;5055137;28;20225;-87
2021/08/11 11:12:15;;;;;;;3.70;3.30;;;;;;;32.04;32.86;99618.09;5038777;28;20240;-86
2021/08/11 11:14:47;;;;;;;3.28;3.00;;;;;;;32.29;31.44;99606.41;5055637;28;20236;-87
2021/08/11 11:17:15;;;;;;;2.92;2.63;;;;;;;32.32;31.52;99614.00;5072152;28;20287;-86
2021/08/11 11:20:09;;;;;;;3.10;2.80;;;;;;;32.22;31.72;99608.22;5038870;28;20241;-86
2021/08/11 11:22:42;;;;;;;3.83;3.10;;;;;;;32.81;30.74;99605.06;5056216;28;20241;-86
2021/08/11 11:25:10;;;;;;;3.40;3.10;;;;;;;32.97;29.80;99600.22;5055385;28;20253;-86
2021/08/11 11:27:56;;;;;;;4.13;3.08;;;;;;;33.48;29.33;99606.25;5038561;28;20249;-87
2021/08/11 11:30:25;;;;;;;3.35;2.80;;;;;;;33.00;29.56;99595.88;5055051;28;20260;-86
2021/08/11 11:32:53;;;;;;;3.08;2.83;;;;;;;33.12;29.12;99593.75;5055469;28;20225;-87
2021/08/11 11:35:21;;;;;;;3.50;3.20;;;;;;;33.23;29.06;99595.91;5071952;28;20312;-86
2021/08/11 11:38:08;;;;;;;4.82;2.92;;;;;;;33.50;29.03;99595.56;5055027;28;20222;-86
2021/08/11 11:40:53;;;;;;;3.63;2.75;;;;;;;33.13;29.33;99597.28;5054778;28;20234;-87
2021/08/11 11:43:27;;;;;;;3.85;2.80;;;;;;;33.17;29.77;99593.47;5055069;28;20280;-87